createdAt,value
2022-12-03T00:01:01.289Z,12.00
2022-12-03T00:03:29.759Z,13.70
2022-12-03T00:05:58.007Z,11.30
2022-12-03T00:08:25.984Z,11.50
2022-12-03T00:10:53.877Z,12.50
2022-12-03T00:13:21.827Z,12.20
2022-12-03T00:15:50.315Z,12.30
2022-12-03T00:18:18.205Z,12.90
2022-12-03T00:20:46.121Z,11.10
2022-12-03T00:23:13.968Z,15.20
2022-12-03T00:25:41.889Z,13.90
2022-12-03T00:28:09.770Z,12.30
2022-12-03T00:30:37.962Z,12.50
2022-12-03T00:33:05.898Z,8.90
2022-12-03T00:35:33.785Z,12.40
2022-12-03T00:38:01.698Z,9.50
2022-12-03T00:40:29.553Z,9.20
2022-12-03T00:42:57.460Z,9.10
2022-12-03T00:45:25.313Z,11.60
2022-12-03T00:47:53.230Z,12.00
2022-12-03T00:50:21.088Z,15.20
2022-12-03T00:52:50.052Z,12.10
2022-12-03T00:55:18.141Z,10.00
2022-12-03T00:57:46.155Z,11.30
2022-12-03T01:00:15.500Z,12.30
2022-12-03T01:02:44.088Z,13.30
2022-12-03T01:05:12.039Z,11.70
2022-12-03T01:07:40.187Z,8.90
2022-12-03T01:10:08.498Z,12.10
2022-12-03T01:12:36.396Z,10.70
2022-12-03T01:15:05.928Z,15.90
2022-12-03T01:17:33.888Z,15.30
2022-12-03T01:20:02.661Z,13.90
2022-12-03T01:22:30.631Z,10.70
2022-12-03T01:24:58.678Z,12.60
2022-12-03T01:27:26.896Z,9.60
2022-12-03T01:29:54.859Z,10.00
2022-12-03T01:32:22.889Z,10.20
2022-12-03T01:34:54.903Z,7.30
2022-12-03T01:37:26.302Z,10.50
2022-12-03T01:39:54.825Z,11.80
2022-12-03T01:42:29.125Z,13.00
2022-12-03T01:44:59.660Z,15.30
2022-12-03T01:47:36.553Z,13.30
2022-12-03T01:50:27.681Z,14.70
2022-12-03T01:53:01.664Z,8.70
2022-12-03T01:55:30.358Z,11.10
2022-12-03T01:58:02.002Z,8.00
2022-12-03T02:00:31.852Z,12.00
2022-12-03T02:03:07.559Z,8.70
2022-12-03T02:05:37.570Z,12.40
2022-12-03T02:08:35.128Z,13.40
2022-12-03T02:11:30.503Z,7.50
2022-12-03T02:14:11.049Z,8.40
2022-12-03T02:16:41.835Z,9.80
2022-12-03T02:19:27.028Z,9.20
2022-12-03T02:22:16.892Z,10.00
2022-12-03T02:25:05.684Z,7.20
2022-12-03T02:27:33.953Z,9.40
2022-12-03T02:30:01.913Z,13.50
2022-12-03T02:32:29.826Z,13.90
2022-12-03T02:34:57.705Z,7.40
2022-12-03T02:37:32.723Z,9.60
2022-12-03T02:40:10.825Z,10.40
2022-12-03T02:42:39.509Z,11.70
2022-12-03T02:45:25.311Z,9.60
2022-12-03T02:48:00.875Z,12.70
2022-12-03T02:50:46.353Z,11.30
2022-12-03T02:53:21.316Z,14.00
2022-12-03T02:55:52.707Z,12.90
2022-12-03T02:58:23.265Z,11.40
2022-12-03T03:00:55.704Z,8.50
2022-12-03T03:03:28.449Z,10.60
2022-12-03T03:05:58.303Z,12.00
2022-12-03T03:08:27.495Z,12.20
2022-12-03T03:10:57.503Z,9.60
2022-12-03T03:13:25.467Z,11.90
2022-12-03T03:15:53.457Z,6.80
2022-12-03T03:18:21.427Z,11.10
2022-12-03T03:20:49.349Z,14.00
2022-12-03T03:23:21.414Z,14.10
2022-12-03T03:26:00.512Z,10.50
2022-12-03T03:28:30.976Z,10.00
2022-12-03T03:31:04.271Z,10.20
2022-12-03T03:33:33.142Z,10.70
2022-12-03T03:36:01.641Z,9.70
2022-12-03T03:38:30.620Z,13.00
2022-12-03T03:41:02.171Z,10.70
2022-12-03T03:43:33.524Z,4.10
2022-12-03T03:46:05.579Z,5.50
2022-12-03T03:48:35.490Z,9.70
2022-12-03T03:51:09.083Z,8.50
2022-12-03T03:53:41.331Z,7.70
2022-12-03T03:56:10.822Z,11.00
2022-12-03T03:58:39.022Z,8.30
2022-12-03T04:01:07.778Z,10.80
2022-12-03T04:03:35.724Z,10.00
2022-12-03T04:06:04.093Z,8.70
2022-12-03T04:08:32.357Z,4.00
2022-12-03T04:11:19.310Z,7.40
2022-12-03T04:13:47.199Z,8.50
2022-12-03T04:16:15.194Z,7.50
2022-12-03T04:18:43.167Z,11.50
2022-12-03T04:21:35.961Z,9.80
2022-12-03T04:24:06.413Z,9.90
2022-12-03T04:26:54.318Z,7.90
2022-12-03T04:29:23.346Z,9.10
2022-12-03T04:32:10.490Z,6.90
2022-12-03T04:34:57.430Z,8.60
2022-12-03T04:37:25.561Z,10.00
2022-12-03T04:39:53.475Z,7.00
2022-12-03T04:42:21.707Z,10.30
2022-12-03T04:44:50.668Z,10.90
2022-12-03T04:47:22.518Z,9.50
2022-12-03T04:49:52.120Z,10.20
2022-12-03T04:52:21.358Z,9.70
2022-12-03T04:54:49.430Z,9.00
2022-12-03T04:57:17.490Z,6.60
2022-12-03T04:59:45.547Z,7.30
2022-12-03T05:02:13.471Z,6.40
2022-12-03T05:04:42.215Z,12.50
2022-12-03T05:07:10.104Z,6.90
2022-12-03T05:09:37.985Z,12.10
2022-12-03T05:12:06.272Z,9.30
2022-12-03T05:14:34.153Z,9.80
2022-12-03T05:17:02.165Z,10.10
2022-12-03T05:19:59.500Z,9.40
2022-12-03T05:22:27.349Z,9.50
2022-12-03T05:24:55.585Z,7.10
2022-12-03T05:27:24.392Z,9.50
2022-12-03T05:29:53.129Z,11.10
2022-12-03T05:32:21.163Z,11.40
2022-12-03T05:34:49.212Z,5.60
2022-12-03T05:37:17.116Z,15.50
2022-12-03T05:39:45.103Z,10.70
2022-12-03T05:42:31.893Z,9.70
2022-12-03T05:44:59.818Z,11.50
2022-12-03T05:47:27.649Z,10.90
2022-12-03T05:49:55.491Z,10.30
2022-12-03T05:52:23.357Z,12.40
2022-12-03T05:54:51.385Z,13.40
2022-12-03T05:57:19.469Z,11.60
2022-12-03T05:59:47.459Z,16.00
2022-12-03T06:02:15.495Z,13.60
2022-12-03T06:04:43.484Z,12.70
2022-12-03T06:07:14.084Z,14.00
2022-12-03T06:09:42.357Z,8.50
2022-12-03T06:12:10.280Z,9.00
2022-12-03T06:14:38.126Z,10.70
2022-12-03T06:17:06.087Z,14.30
2022-12-03T06:19:34.351Z,16.30
2022-12-03T06:22:02.308Z,15.70
2022-12-03T06:24:30.250Z,10.90
2022-12-03T06:26:58.129Z,7.80
2022-12-03T06:29:25.976Z,7.80
2022-12-03T06:31:53.848Z,10.70
2022-12-03T06:34:21.813Z,9.00
2022-12-03T06:36:50.421Z,12.40
2022-12-03T06:39:19.085Z,10.30
2022-12-03T06:41:47.023Z,14.70
2022-12-03T06:44:15.463Z,8.30
2022-12-03T06:46:43.588Z,9.00
2022-12-03T06:49:11.522Z,7.00
2022-12-03T06:51:39.656Z,9.10
2022-12-03T06:54:07.636Z,10.50
2022-12-03T06:56:41.841Z,9.50
2022-12-03T06:59:13.900Z,9.10
2022-12-03T07:01:41.989Z,12.60
2022-12-03T07:04:10.167Z,16.30
2022-12-03T07:06:37.998Z,13.30
2022-12-03T07:09:05.878Z,9.50
2022-12-03T07:11:39.939Z,14.00
2022-12-03T07:14:11.352Z,10.90
2022-12-03T07:16:40.149Z,11.80
2022-12-03T07:19:08.129Z,10.60
2022-12-03T07:21:36.259Z,12.30
2022-12-03T07:24:04.380Z,11.80
2022-12-03T07:26:32.970Z,11.20
2022-12-03T07:29:00.930Z,12.40
2022-12-03T07:31:28.919Z,13.70
2022-12-03T07:33:56.845Z,17.70
2022-12-03T07:36:25.298Z,13.50
2022-12-03T07:38:53.252Z,12.50
2022-12-03T07:41:21.145Z,11.30
2022-12-03T07:43:49.112Z,13.10
2022-12-03T07:46:17.099Z,12.40
2022-12-03T07:48:45.022Z,11.50
2022-12-03T07:51:15.239Z,8.30
2022-12-03T07:53:43.768Z,10.70
2022-12-03T07:56:11.713Z,16.20
2022-12-03T07:58:39.705Z,16.20
2022-12-03T08:01:07.790Z,16.60
2022-12-03T08:03:36.087Z,14.00
2022-12-03T08:06:05.328Z,11.90
2022-12-03T08:08:33.202Z,4.50
2022-12-03T08:11:02.367Z,9.40
2022-12-03T08:13:30.408Z,12.80
2022-12-03T08:16:10.292Z,11.90
2022-12-03T08:18:38.314Z,15.90
2022-12-03T08:21:06.924Z,14.60
2022-12-03T08:23:34.810Z,12.30
2022-12-03T08:26:07.134Z,13.10
2022-12-03T08:28:36.223Z,11.50
2022-12-03T08:31:12.442Z,10.40
2022-12-03T08:33:51.688Z,11.60
2022-12-03T08:36:26.337Z,11.00
2022-12-03T08:39:02.277Z,6.90
2022-12-03T08:41:51.628Z,9.70
2022-12-03T08:44:41.091Z,14.50
2022-12-03T08:47:23.957Z,12.90
2022-12-03T08:50:26.312Z,10.40
2022-12-03T08:53:06.947Z,10.40
2022-12-03T08:55:39.119Z,10.30
2022-12-03T08:58:41.715Z,11.60
2022-12-03T09:01:12.403Z,9.60
2022-12-03T09:03:52.361Z,9.60
2022-12-03T09:06:22.144Z,11.40
2022-12-03T09:08:50.194Z,15.20
2022-12-03T09:11:18.181Z,16.50
2022-12-03T09:13:46.060Z,12.20
2022-12-03T09:16:14.032Z,12.30
2022-12-03T09:18:42.833Z,10.70
2022-12-03T09:21:10.945Z,10.40
2022-12-03T09:23:38.857Z,9.20
2022-12-03T09:26:06.868Z,9.60
2022-12-03T09:28:34.768Z,13.30
2022-12-03T09:31:02.704Z,13.00
2022-12-03T09:33:32.515Z,25.60
2022-12-03T09:36:00.384Z,16.10
2022-12-03T09:38:28.281Z,12.00
2022-12-03T09:40:56.173Z,11.20
2022-12-03T09:43:24.581Z,12.00
2022-12-03T09:45:57.934Z,10.40
2022-12-03T09:48:26.250Z,9.50
2022-12-03T09:50:54.395Z,11.00
2022-12-03T09:53:27.429Z,13.00
2022-12-03T09:55:59.584Z,17.20
2022-12-03T09:58:34.518Z,14.80
2022-12-03T10:01:02.977Z,8.70
2022-12-03T10:03:32.209Z,13.40
2022-12-03T10:06:00.087Z,11.70
2022-12-03T10:08:32.140Z,13.90
2022-12-03T10:11:00.462Z,13.40
2022-12-03T10:13:34.650Z,12.60
2022-12-03T10:16:02.718Z,15.90
2022-12-03T10:18:41.287Z,16.20
2022-12-03T10:21:34.295Z,16.40
2022-12-03T10:24:26.015Z,12.30
2022-12-03T10:27:00.693Z,12.50
2022-12-03T10:29:35.142Z,12.90
2022-12-03T10:32:10.285Z,13.50
2022-12-03T10:34:41.590Z,10.20
2022-12-03T10:37:20.177Z,12.10
2022-12-03T10:40:10.839Z,16.10
2022-12-03T10:42:41.591Z,15.20
2022-12-03T10:45:25.449Z,19.10
2022-12-03T10:48:20.328Z,14.70
2022-12-03T10:50:52.188Z,14.50
2022-12-03T10:53:26.313Z,12.10
2022-12-03T10:55:59.810Z,13.50
2022-12-03T10:58:34.210Z,15.00
2022-12-03T11:01:14.239Z,15.30
2022-12-03T11:03:42.663Z,18.10
2022-12-03T11:06:18.601Z,18.40
2022-12-03T11:08:56.543Z,14.40
2022-12-03T11:11:30.212Z,14.80
2022-12-03T11:14:04.461Z,14.90
2022-12-03T11:16:41.627Z,13.00
2022-12-03T11:19:12.631Z,15.90
2022-12-03T11:22:05.534Z,14.70
2022-12-03T11:24:37.088Z,13.80
2022-12-03T11:27:04.996Z,15.10
2022-12-03T11:29:56.254Z,18.40
2022-12-03T11:33:01.328Z,17.50
2022-12-03T11:36:04.040Z,14.40
2022-12-03T11:38:38.348Z,14.40
2022-12-03T11:41:18.306Z,16.80
2022-12-03T11:43:52.270Z,16.30
2022-12-03T11:46:36.671Z,12.70
2022-12-03T11:49:32.091Z,13.90
2022-12-03T11:52:11.984Z,15.70
2022-12-03T11:54:39.985Z,17.00
2022-12-03T11:57:30.992Z,15.80
2022-12-03T12:00:28.666Z,15.70
2022-12-03T12:02:58.592Z,14.10
2022-12-03T12:05:30.266Z,15.00
2022-12-03T12:08:00.998Z,15.70
2022-12-03T12:10:49.563Z,14.00
2022-12-03T12:13:32.731Z,15.50
2022-12-03T12:16:11.195Z,14.80
2022-12-03T12:18:45.851Z,15.80
2022-12-03T12:21:50.112Z,17.30
2022-12-03T12:24:43.656Z,16.80
2022-12-03T12:27:15.248Z,14.60
2022-12-03T12:29:50.440Z,13.80
2022-12-03T12:32:23.367Z,14.60
2022-12-03T12:34:57.216Z,12.70
2022-12-03T12:38:00.151Z,12.00
2022-12-03T12:40:32.361Z,13.20
2022-12-03T12:43:28.067Z,13.60
2022-12-03T12:46:18.839Z,14.50
2022-12-03T12:48:49.580Z,15.70
2022-12-03T12:51:21.552Z,17.10
2022-12-03T12:53:50.387Z,14.50
2022-12-03T12:56:32.807Z,15.40
2022-12-03T12:59:20.599Z,13.20
2022-12-03T13:01:50.348Z,15.00
2022-12-03T13:04:22.817Z,13.80
2022-12-03T13:06:54.219Z,14.30
2022-12-03T13:09:25.545Z,12.90
2022-12-03T13:12:01.286Z,14.90
2022-12-03T13:14:37.066Z,18.60
2022-12-03T13:17:16.727Z,17.30
2022-12-03T13:20:00.584Z,14.60
2022-12-03T13:22:33.033Z,10.70
2022-12-03T13:25:57.355Z,12.50
2022-12-03T13:28:20.196Z,12.80
2022-12-03T13:30:48.099Z,13.90
2022-12-03T13:33:26.638Z,11.90
2022-12-03T13:35:56.598Z,18.40
2022-12-03T13:38:26.068Z,17.00
2022-12-03T13:41:03.069Z,14.10
2022-12-03T13:43:32.948Z,11.90
2022-12-03T13:46:01.438Z,13.90
2022-12-03T13:48:35.225Z,13.50
2022-12-03T13:51:27.230Z,11.60
2022-12-03T13:53:55.465Z,12.30
2022-12-03T13:56:32.862Z,13.30
2022-12-03T13:59:02.228Z,14.10
2022-12-03T14:01:30.776Z,19.10
2022-12-03T14:03:59.079Z,17.70
2022-12-03T14:06:26.999Z,11.60
2022-12-03T14:08:54.946Z,12.90
2022-12-03T14:11:41.392Z,13.00
2022-12-03T14:14:09.456Z,12.30
2022-12-03T14:16:37.387Z,12.90
2022-12-03T14:19:06.380Z,11.60
2022-12-03T14:21:34.323Z,14.20
2022-12-03T14:24:02.266Z,16.40
2022-12-03T14:26:30.153Z,18.30
2022-12-03T14:28:58.125Z,17.50
2022-12-03T14:31:26.003Z,15.50
2022-12-03T14:33:53.924Z,13.40
2022-12-03T14:36:21.870Z,11.80
2022-12-03T14:38:49.792Z,15.20
2022-12-03T14:41:36.574Z,14.10
2022-12-03T14:44:04.533Z,12.40
2022-12-03T14:46:32.587Z,12.20
2022-12-03T14:49:00.454Z,18.30
2022-12-03T14:51:28.390Z,17.20
2022-12-03T14:53:56.426Z,9.70
2022-12-03T14:56:24.415Z,11.60
2022-12-03T14:58:52.336Z,11.90
2022-12-03T15:01:20.257Z,10.30
2022-12-03T15:03:48.331Z,14.60
2022-12-03T15:06:16.201Z,12.90
2022-12-03T15:08:44.899Z,4.30
2022-12-03T15:11:12.885Z,16.10
2022-12-03T15:13:40.783Z,14.60
2022-12-03T15:16:09.048Z,16.60
2022-12-03T15:18:36.985Z,15.90
2022-12-03T15:21:05.003Z,10.60
2022-12-03T15:23:32.827Z,13.70
2022-12-03T15:26:00.941Z,10.60
2022-12-03T15:28:28.882Z,12.20
2022-12-03T15:30:57.046Z,11.40
2022-12-03T15:33:25.974Z,15.00
2022-12-03T15:35:53.988Z,16.50
2022-12-03T15:38:21.964Z,14.20
2022-12-03T15:40:51.333Z,17.00
2022-12-03T15:43:19.185Z,12.90
2022-12-03T15:45:47.346Z,17.60
2022-12-03T15:48:15.769Z,15.30
2022-12-03T15:50:43.722Z,15.70
2022-12-03T15:53:11.590Z,16.30
2022-12-03T15:55:39.555Z,13.10
2022-12-03T15:58:07.506Z,13.70
2022-12-03T16:00:35.337Z,14.80
2022-12-03T16:03:03.273Z,14.60
2022-12-03T16:05:31.207Z,16.30
2022-12-03T16:07:59.146Z,21.70
2022-12-03T16:10:27.121Z,12.40
2022-12-03T16:12:55.040Z,13.60
2022-12-03T16:15:26.858Z,17.20
2022-12-03T16:17:55.469Z,17.80
2022-12-03T16:20:23.446Z,18.40
2022-12-03T16:22:52.213Z,15.20
2022-12-03T16:25:20.060Z,14.80
2022-12-03T16:27:47.952Z,15.30
2022-12-03T16:30:16.107Z,18.60
2022-12-03T16:32:43.973Z,21.70
2022-12-03T16:35:11.819Z,18.30
2022-12-03T16:37:39.649Z,17.40
2022-12-03T16:40:08.814Z,17.00
2022-12-03T16:42:37.477Z,15.00
2022-12-03T16:45:08.851Z,18.20
2022-12-03T16:47:37.142Z,16.60
2022-12-03T16:50:10.632Z,16.20
2022-12-03T16:52:40.730Z,15.40
2022-12-03T16:55:09.455Z,18.20
2022-12-03T16:57:37.377Z,20.50
2022-12-03T17:00:08.431Z,14.90
2022-12-03T17:02:36.472Z,15.20
2022-12-03T17:05:04.917Z,14.90
2022-12-03T17:07:33.155Z,14.30
2022-12-03T17:10:01.309Z,15.20
2022-12-03T17:12:42.167Z,17.80
2022-12-03T17:15:11.190Z,17.40
2022-12-03T17:17:39.208Z,17.40
2022-12-03T17:20:08.419Z,20.80
2022-12-03T17:22:36.275Z,18.30
2022-12-03T17:25:04.432Z,17.50
2022-12-03T17:27:32.327Z,18.10
2022-12-03T17:30:00.775Z,16.40
2022-12-03T17:32:29.135Z,14.70
2022-12-03T17:34:57.317Z,13.70
2022-12-03T17:37:25.521Z,14.60
2022-12-03T17:39:53.751Z,14.00
2022-12-03T17:42:22.079Z,18.30
2022-12-03T17:44:50.081Z,16.50
2022-12-03T17:47:18.027Z,18.10
2022-12-03T17:49:45.934Z,16.40
2022-12-03T17:52:13.873Z,13.30
2022-12-03T17:55:08.963Z,14.50
2022-12-03T17:57:29.776Z,17.30
2022-12-03T17:59:57.740Z,18.40
2022-12-03T18:02:25.656Z,16.60
2022-12-03T18:04:53.692Z,16.90
2022-12-03T18:07:21.778Z,20.80
2022-12-03T18:09:50.065Z,16.40
2022-12-03T18:12:17.985Z,17.10
2022-12-03T18:14:45.927Z,15.50
2022-12-03T18:17:14.521Z,13.00
2022-12-03T18:19:42.466Z,16.90
2022-12-03T18:22:10.376Z,17.10
2022-12-03T18:24:38.310Z,17.80
2022-12-03T18:27:06.256Z,15.80
2022-12-03T18:29:34.350Z,17.00
2022-12-03T18:32:02.319Z,21.20
2022-12-03T18:34:30.239Z,15.00
2022-12-03T18:36:58.093Z,19.60
2022-12-03T18:39:34.060Z,17.30
2022-12-03T18:42:06.747Z,16.40
2022-12-03T18:44:34.696Z,15.00
2022-12-03T18:47:02.817Z,14.50
2022-12-03T18:49:30.711Z,16.50
2022-12-03T18:51:59.727Z,17.30
2022-12-03T18:54:28.152Z,15.50
2022-12-03T18:56:56.318Z,17.40
2022-12-03T18:59:24.234Z,16.50
2022-12-03T19:01:52.193Z,15.70
2022-12-03T19:04:21.651Z,16.80
2022-12-03T19:06:49.705Z,14.60
2022-12-03T19:09:17.784Z,18.10
2022-12-03T19:11:45.629Z,18.60
2022-12-03T19:14:13.627Z,16.30
2022-12-03T19:16:42.074Z,15.90
2022-12-03T19:19:10.354Z,17.80
2022-12-03T19:21:38.462Z,20.30
2022-12-03T19:26:55.719Z,21.60
2022-12-03T19:29:24.790Z,15.70
2022-12-03T19:31:53.177Z,15.40
2022-12-03T19:34:21.513Z,15.40
2022-12-03T19:36:49.624Z,18.00
2022-12-03T19:39:17.544Z,17.00
2022-12-03T19:41:45.503Z,14.80
2022-12-03T19:44:16.234Z,18.50
2022-12-03T19:46:45.031Z,19.80
2022-12-03T19:49:13.010Z,21.40
2022-12-03T19:51:40.916Z,17.90
2022-12-03T19:54:12.049Z,17.00
2022-12-03T19:56:40.348Z,16.10
2022-12-03T19:59:08.957Z,20.30
2022-12-03T20:01:38.448Z,20.00
2022-12-03T20:04:07.931Z,21.70
2022-12-03T20:06:39.227Z,24.70
2022-12-03T20:09:16.426Z,27.20
2022-12-03T20:11:46.006Z,26.10
2022-12-03T20:14:16.548Z,25.70
2022-12-03T20:16:45.588Z,20.10
2022-12-03T20:19:17.883Z,21.10
2022-12-03T20:21:46.143Z,16.60
2022-12-03T20:24:17.446Z,19.40
2022-12-03T20:26:45.820Z,19.30
2022-12-03T20:29:14.894Z,20.00
2022-12-03T20:31:42.929Z,16.60
2022-12-03T20:34:11.443Z,18.00
2022-12-03T20:36:40.190Z,21.50
2022-12-03T20:39:08.538Z,28.20
2022-12-03T20:41:37.607Z,28.30
2022-12-03T20:44:07.691Z,19.70
2022-12-03T20:46:36.450Z,19.40
2022-12-03T20:49:05.166Z,19.50
2022-12-03T20:51:33.305Z,17.20
2022-12-03T20:54:01.868Z,19.30
2022-12-03T20:56:34.881Z,17.40
2022-12-03T20:59:10.513Z,19.00
2022-12-03T21:01:39.193Z,17.70
2022-12-03T21:04:08.945Z,23.30
2022-12-03T21:06:37.804Z,21.20
2022-12-03T21:09:07.239Z,19.10
2022-12-03T21:11:39.270Z,19.00
2022-12-03T21:14:09.160Z,16.90
2022-12-03T21:17:07.219Z,16.30
2022-12-03T21:19:27.767Z,15.80
2022-12-03T21:21:55.706Z,16.10
2022-12-03T21:24:23.765Z,19.00
2022-12-03T21:26:51.682Z,31.60
2022-12-03T21:29:19.604Z,22.90
2022-12-03T21:31:47.511Z,19.90
2022-12-03T21:34:15.832Z,19.20
2022-12-03T21:36:43.695Z,14.90
2022-12-03T21:39:11.646Z,17.90
2022-12-03T21:41:39.549Z,19.60
2022-12-03T21:44:07.523Z,16.10
2022-12-03T21:47:10.048Z,18.00
2022-12-03T21:49:23.526Z,17.20
2022-12-03T21:51:51.487Z,20.00
2022-12-03T21:54:19.355Z,24.00
2022-12-03T21:56:47.203Z,26.60
2022-12-03T21:59:15.145Z,21.00
2022-12-03T22:01:47.116Z,16.80
2022-12-03T22:04:15.402Z,21.20
2022-12-03T22:06:43.404Z,19.70
2022-12-03T22:09:11.307Z,21.40
2022-12-03T22:11:39.258Z,18.30
2022-12-03T22:14:08.358Z,18.90
2022-12-03T22:16:36.373Z,19.00
2022-12-03T22:19:04.443Z,16.50
2022-12-03T22:21:32.336Z,22.10
2022-12-03T22:24:00.197Z,25.10
2022-12-03T22:26:28.096Z,17.90
2022-12-03T22:28:56.021Z,18.20
2022-12-03T22:31:23.937Z,18.20
2022-12-03T22:33:51.879Z,20.90
2022-12-03T22:36:21.607Z,18.50
2022-12-03T22:38:51.194Z,19.10
2022-12-03T22:41:20.588Z,19.60
2022-12-03T22:43:49.861Z,20.30
2022-12-03T22:46:17.949Z,24.90
2022-12-03T22:48:47.648Z,25.40
2022-12-03T22:51:18.487Z,19.80
2022-12-03T22:53:47.805Z,19.80
2022-12-03T22:56:17.419Z,19.90
2022-12-03T22:58:45.401Z,21.10
2022-12-03T23:01:29.198Z,20.80
2022-12-03T23:03:57.762Z,19.30
2022-12-03T23:06:27.322Z,19.30
2022-12-03T23:08:56.633Z,20.20
2022-12-03T23:11:25.231Z,18.50
2022-12-03T23:13:53.302Z,25.20
2022-12-03T23:16:29.415Z,25.40
2022-12-03T23:18:59.775Z,21.30
2022-12-03T23:21:31.452Z,18.60
2022-12-03T23:24:04.960Z,18.70
2022-12-03T23:26:38.491Z,19.40
2022-12-03T23:29:08.710Z,18.90
2022-12-03T23:31:37.028Z,19.60
2022-12-03T23:34:05.679Z,17.90
2022-12-03T23:36:34.296Z,16.20
2022-12-03T23:39:02.314Z,19.50
2022-12-03T23:41:30.204Z,25.40
2022-12-03T23:43:58.098Z,22.50
2022-12-03T23:46:27.646Z,19.70
2022-12-03T23:48:58.668Z,17.80
2022-12-03T23:51:27.317Z,18.30
2022-12-03T23:53:56.397Z,21.10
2022-12-03T23:56:29.249Z,19.90
2022-12-03T23:58:58.667Z,19.50
